Flight Track Log - Related Links

Times and Time Zones

All times are in EDT time to prevent confusion due to time zone crossing. See the N1089D flight status page for this flight to view local times or setup timezone preferences in your user account.

Time Position Orientation Groundspeed Altitude Reporting Facility
EDT Latitude Longitude Course Direction KTS MPH feet Rate Location/Type
Wed 03:55:56 PM 40.7000 -73.4333 57° Northeast 67 77 1,800  Level New York TRACON
Wed 03:56:56 PM 40.6833 -73.4167 143° Southeast 85 98 2,400 600 Climbing New York TRACON
Wed 03:57:56 PM 40.6833 -73.3833 90° East 91 105 3,000 194 Climbing New York TRACON
Wed 03:59:00 PM 40.6952 -73.3715 37° Northeast  Level FlightAware Approximate
Wed 04:00:02 PM 40.6667 -73.3000 37° Northeast 109 125 3,000  Level New York TRACON
Wed 04:01:00 PM 40.7433 -73.2968 57° Northeast  Level FlightAware Approximate
Wed 04:01:02 PM 40.6500 -73.2667 123° Southeast 105 121 3,000  Level New York TRACON
Wed 04:02:02 PM 40.6500 -73.2167 90° East 103 119 3,000 -200 Level New York TRACON
Wed 04:03:02 PM 40.6667 -73.1833 57° Northeast 118 136 2,600 -450 Descending New York TRACON
Wed 04:04:02 PM 40.6667 -73.1500 90° East 115 132 2,100 -300 Descending New York TRACON
Wed 04:05:02 PM 40.6833 -73.1000 66° East 116 133 2,000 -50 Descending New York TRACON
Wed 04:06:02 PM 40.7000 -73.0667 57° Northeast 119 137 2,000 50 Level New York TRACON
Wed 04:07:02 PM 40.7000 -73.0167 90° East 120 138 2,100 50 Climbing New York TRACON
Wed 04:08:02 PM 40.7167 -72.9833 57° Northeast 123 142 2,100 -200 Level New York TRACON
Wed 04:09:02 PM 40.7333 -72.9500 57° Northeast 132 152 1,700 -350 Descending New York TRACON
Wed 04:10:02 PM 40.7667 -72.9167 37° Northeast 130 150 1,400 -450 Descending New York TRACON
Wed 04:11:02 PM 40.8000 -72.9000 21° North 103 119 800 -300 Descending New York TRACON
Wed 04:12:02 PM 40.8167 -72.8833 37° Northeast 101 116 800 150 Level New York TRACON
Wed 04:13:02 PM 40.8333 -72.8500 57° Northeast 104 120 1,100 450 Climbing New York TRACON
Wed 04:14:02 PM 40.8167 -72.8667 217° Southwest 79 91 1,700 450 Climbing New York TRACON
Wed 04:15:02 PM 40.8167 -72.8833 270° West 91 105 2,000 450 Climbing New York TRACON
Wed 04:16:02 PM 40.8000 -72.8500 123° Southeast 95 109 2,600 550 Climbing New York TRACON
Wed 04:17:02 PM 40.7833 -72.8333 143° Southeast 87 100 3,100 250 Climbing New York TRACON
Wed 04:18:02 PM 40.7667 -72.8500 217° Southwest 83 96 3,100 -50 Level New York TRACON
Wed 04:19:02 PM 40.7500 -72.8667 217° Southwest 81 93 3,000  Descending New York TRACON
Wed 04:20:02 PM 40.7333 -72.9000 237° Southwest 83 96 3,100 50 Climbing New York TRACON
Wed 04:21:02 PM 40.7167 -72.9167 217° Southwest 85 98 3,100 -52 Level New York TRACON
Wed 04:21:57 PM 40.7167 -72.9500 270° West 85 98 3,000 -470 Descending New York TRACON
Wed 04:22:57 PM 40.7167 -72.9833 270° West 92 106 2,200 -500 Descending New York TRACON
Wed 04:23:57 PM 40.7333 -72.9833 360° North 119 137 2,000 -250 Descending New York TRACON
Wed 04:24:57 PM 40.7667 -72.9500 37° Northeast 128 147 1,700 -500 Descending New York TRACON
Wed 04:25:57 PM 40.7833 -72.9167 57° Northeast 112 129 1,000 -600 Descending New York TRACON
Wed 04:26:57 PM 40.8167 -72.8833 37° Northeast 101 116 500 -50 Descending New York TRACON
Wed 04:27:57 PM 40.8333 -72.8667 37° Northeast 108 124 900 550 Climbing New York TRACON
Wed 04:28:57 PM 40.8167 -72.8500 143° Southeast 86 99 1,600 600 Climbing New York TRACON
Wed 04:29:57 PM 40.8167 -72.8667 270° West 79 91 2,100 550 Climbing New York TRACON
Wed 04:30:57 PM 40.8167 -72.9000 270° West 79 91 2,700 500 Climbing New York TRACON
Wed 04:31:57 PM 40.8333 -72.9333 303° West 85 98 3,100 400 Climbing New York TRACON

Login

Don't have an account? Register now (free) for customized features, flight alerts, and more!